sensor_id;sensor_type;location;lat;lon;timestamp;P1;durP1;ratioP1;P2;durP2;ratioP2
25715;SDS011;13573;50.936;4.328;2023-06-10T00:00:45;13.10;;;12.40;;
25715;SDS011;13573;50.936;4.328;2023-06-10T00:03:12;3.73;;;3.57;;
25715;SDS011;13573;50.936;4.328;2023-06-10T00:05:40;7.00;;;6.70;;
25715;SDS011;13573;50.936;4.328;2023-06-10T00:08:07;9.47;;;8.97;;
25715;SDS011;13573;50.936;4.328;2023-06-10T00:10:34;2.43;;;2.33;;
25715;SDS011;13573;50.936;4.328;2023-06-10T00:13:02;1.00;;;0.90;;
25715;SDS011;13573;50.936;4.328;2023-06-10T00:15:30;0.30;;;0.30;;
25715;SDS011;13573;50.936;4.328;2023-06-10T00:17:57;3.60;;;1.70;;
25715;SDS011;13573;50.936;4.328;2023-06-10T00:20:24;0.00;;;0.00;;
25715;SDS011;13573;50.936;4.328;2023-06-10T00:22:51;0.00;;;0.00;;
25715;SDS011;13573;50.936;4.328;2023-06-10T00:25:18;0.03;;;0.03;;
25715;SDS011;13573;50.936;4.328;2023-06-10T00:27:44;0.87;;;0.60;;
25715;SDS011;13573;50.936;4.328;2023-06-10T00:30:11;1.03;;;0.53;;
25715;SDS011;13573;50.936;4.328;2023-06-10T00:32:38;0.67;;;0.30;;
25715;SDS011;13573;50.936;4.328;2023-06-10T00:35:05;0.60;;;0.60;;
25715;SDS011;13573;50.936;4.328;2023-06-10T00:37:32;0.00;;;0.00;;
25715;SDS011;13573;50.936;4.328;2023-06-10T00:40:04;3.20;;;1.53;;
25715;SDS011;13573;50.936;4.328;2023-06-10T00:42:32;0.40;;;0.40;;
25715;SDS011;13573;50.936;4.328;2023-06-10T00:44:58;1.60;;;0.70;;
25715;SDS011;13573;50.936;4.328;2023-06-10T00:47:25;38.80;;;3.10;;
25715;SDS011;13573;50.936;4.328;2023-06-10T00:49:53;4.70;;;0.40;;
25715;SDS011;13573;50.936;4.328;2023-06-10T00:52:20;0.30;;;0.30;;
25715;SDS011;13573;50.936;4.328;2023-06-10T00:54:49;0.10;;;0.10;;
25715;SDS011;13573;50.936;4.328;2023-06-10T00:57:15;0.00;;;0.00;;
25715;SDS011;13573;50.936;4.328;2023-06-10T00:59:45;0.00;;;0.00;;
25715;SDS011;13573;50.936;4.328;2023-06-10T01:02:14;0.53;;;0.53;;
25715;SDS011;13573;50.936;4.328;2023-06-10T01:04:40;1.33;;;0.77;;
25715;SDS011;13573;50.936;4.328;2023-06-10T01:12:39;0.00;;;0.00;;
25715;SDS011;13573;50.936;4.328;2023-06-10T01:15:11;0.40;;;0.40;;
25715;SDS011;13573;50.936;4.328;2023-06-10T01:20:17;0.10;;;0.10;;
25715;SDS011;13573;50.936;4.328;2023-06-10T01:22:43;1.27;;;0.80;;
25715;SDS011;13573;50.936;4.328;2023-06-10T01:25:11;0.10;;;0.10;;
25715;SDS011;13573;50.936;4.328;2023-06-10T01:27:38;0.33;;;0.33;;
25715;SDS011;13573;50.936;4.328;2023-06-10T01:30:08;0.20;;;0.20;;
25715;SDS011;13573;50.936;4.328;2023-06-10T01:32:38;1.10;;;1.00;;
25715;SDS011;13573;50.936;4.328;2023-06-10T01:35:09;1.27;;;1.00;;
25715;SDS011;13573;50.936;4.328;2023-06-10T01:37:37;0.70;;;0.70;;
25715;SDS011;13573;50.936;4.328;2023-06-10T01:40:06;0.10;;;0.10;;
25715;SDS011;13573;50.936;4.328;2023-06-10T01:42:34;0.00;;;0.00;;
25715;SDS011;13573;50.936;4.328;2023-06-10T01:45:01;0.10;;;0.10;;
25715;SDS011;13573;50.936;4.328;2023-06-10T01:47:28;8.27;;;7.87;;
25715;SDS011;13573;50.936;4.328;2023-06-10T01:49:54;0.30;;;0.30;;
25715;SDS011;13573;50.936;4.328;2023-06-10T01:52:21;0.00;;;0.00;;
25715;SDS011;13573;50.936;4.328;2023-06-10T01:54:48;0.43;;;0.43;;
25715;SDS011;13573;50.936;4.328;2023-06-10T01:57:15;0.13;;;0.13;;
25715;SDS011;13573;50.936;4.328;2023-06-10T01:59:41;0.00;;;0.00;;
25715;SDS011;13573;50.936;4.328;2023-06-10T02:02:10;0.00;;;0.00;;
25715;SDS011;13573;50.936;4.328;2023-06-10T02:04:36;1.03;;;0.97;;
25715;SDS011;13573;50.936;4.328;2023-06-10T02:07:03;0.20;;;0.20;;
25715;SDS011;13573;50.936;4.328;2023-06-10T02:09:31;0.00;;;0.00;;
25715;SDS011;13573;50.936;4.328;2023-06-10T02:12:01;0.27;;;0.27;;
25715;SDS011;13573;50.936;4.328;2023-06-10T02:14:29;0.10;;;0.10;;
25715;SDS011;13573;50.936;4.328;2023-06-10T02:16:58;0.23;;;0.23;;
25715;SDS011;13573;50.936;4.328;2023-06-10T02:19:25;0.50;;;0.50;;
25715;SDS011;13573;50.936;4.328;2023-06-10T02:21:52;0.50;;;0.50;;
25715;SDS011;13573;50.936;4.328;2023-06-10T02:24:20;0.00;;;0.00;;
25715;SDS011;13573;50.936;4.328;2023-06-10T02:26:47;0.30;;;0.30;;
25715;SDS011;13573;50.936;4.328;2023-06-10T02:29:14;2.73;;;1.73;;
25715;SDS011;13573;50.936;4.328;2023-06-10T02:31:40;15.23;;;14.43;;
25715;SDS011;13573;50.936;4.328;2023-06-10T02:34:07;15.80;;;14.70;;
25715;SDS011;13573;50.936;4.328;2023-06-10T02:36:34;91.27;;;29.13;;
25715;SDS011;13573;50.936;4.328;2023-06-10T02:39:01;15.47;;;14.67;;
25715;SDS011;13573;50.936;4.328;2023-06-10T02:41:29;15.97;;;15.17;;
25715;SDS011;13573;50.936;4.328;2023-06-10T02:43:56;13.67;;;12.97;;
25715;SDS011;13573;50.936;4.328;2023-06-10T02:46:23;14.67;;;13.97;;
25715;SDS011;13573;50.936;4.328;2023-06-10T02:48:50;14.57;;;13.87;;
25715;SDS011;13573;50.936;4.328;2023-06-10T02:51:17;15.03;;;14.23;;
25715;SDS011;13573;50.936;4.328;2023-06-10T02:53:44;15.63;;;14.83;;
25715;SDS011;13573;50.936;4.328;2023-06-10T02:56:11;15.77;;;14.97;;
25715;SDS011;13573;50.936;4.328;2023-06-10T02:58:38;15.70;;;14.63;;
25715;SDS011;13573;50.936;4.328;2023-06-10T03:01:04;14.93;;;14.13;;
25715;SDS011;13573;50.936;4.328;2023-06-10T03:03:31;15.33;;;14.53;;
25715;SDS011;13573;50.936;4.328;2023-06-10T03:05:59;16.03;;;15.17;;
25715;SDS011;13573;50.936;4.328;2023-06-10T03:08:26;13.87;;;13.17;;
25715;SDS011;13573;50.936;4.328;2023-06-10T03:10:52;13.97;;;13.27;;
25715;SDS011;13573;50.936;4.328;2023-06-10T03:13:19;13.57;;;12.87;;
25715;SDS011;13573;50.936;4.328;2023-06-10T03:15:46;19.50;;;17.83;;
25715;SDS011;13573;50.936;4.328;2023-06-10T03:18:13;13.07;;;12.37;;
25715;SDS011;13573;50.936;4.328;2023-06-10T03:20:40;11.80;;;11.20;;
25715;SDS011;13573;50.936;4.328;2023-06-10T03:23:07;11.97;;;11.37;;
25715;SDS011;13573;50.936;4.328;2023-06-10T03:25:35;15.03;;;13.87;;
25715;SDS011;13573;50.936;4.328;2023-06-10T03:28:02;12.23;;;11.63;;
25715;SDS011;13573;50.936;4.328;2023-06-10T03:30:29;15.27;;;14.20;;
25715;SDS011;13573;50.936;4.328;2023-06-10T03:32:56;12.73;;;12.13;;
25715;SDS011;13573;50.936;4.328;2023-06-10T03:35:22;8.80;;;8.40;;
25715;SDS011;13573;50.936;4.328;2023-06-10T03:37:49;9.70;;;9.20;;
25715;SDS011;13573;50.936;4.328;2023-06-10T03:40:16;8.77;;;8.37;;
25715;SDS011;13573;50.936;4.328;2023-06-10T03:42:42;9.47;;;8.97;;
25715;SDS011;13573;50.936;4.328;2023-06-10T03:45:09;9.93;;;9.33;;
25715;SDS011;13573;50.936;4.328;2023-06-10T03:47:37;8.67;;;8.27;;
25715;SDS011;13573;50.936;4.328;2023-06-10T03:50:06;8.30;;;7.90;;
25715;SDS011;13573;50.936;4.328;2023-06-10T03:52:34;8.40;;;8.00;;
25715;SDS011;13573;50.936;4.328;2023-06-10T03:55:01;8.70;;;8.20;;
25715;SDS011;13573;50.936;4.328;2023-06-10T03:57:29;10.40;;;9.80;;
25715;SDS011;13573;50.936;4.328;2023-06-10T03:59:55;7.67;;;7.27;;
25715;SDS011;13573;50.936;4.328;2023-06-10T04:02:22;8.63;;;8.20;;
25715;SDS011;13573;50.936;4.328;2023-06-10T04:04:49;9.83;;;9.13;;
25715;SDS011;13573;50.936;4.328;2023-06-10T04:07:17;9.30;;;8.70;;
25715;SDS011;13573;50.936;4.328;2023-06-10T04:09:45;7.70;;;7.30;;
25715;SDS011;13573;50.936;4.328;2023-06-10T04:12:13;10.37;;;9.47;;
25715;SDS011;13573;50.936;4.328;2023-06-10T04:14:40;8.13;;;7.73;;
25715;SDS011;13573;50.936;4.328;2023-06-10T04:17:08;6.30;;;6.00;;
25715;SDS011;13573;50.936;4.328;2023-06-10T04:19:35;7.93;;;7.53;;
25715;SDS011;13573;50.936;4.328;2023-06-10T04:22:02;6.10;;;5.80;;
25715;SDS011;13573;50.936;4.328;2023-06-10T04:24:30;7.30;;;6.80;;
25715;SDS011;13573;50.936;4.328;2023-06-10T04:26:57;7.57;;;7.20;;
25715;SDS011;13573;50.936;4.328;2023-06-10T04:29:24;7.57;;;7.17;;
25715;SDS011;13573;50.936;4.328;2023-06-10T04:31:50;8.77;;;7.93;;
25715;SDS011;13573;50.936;4.328;2023-06-10T04:34:19;6.43;;;6.13;;
25715;SDS011;13573;50.936;4.328;2023-06-10T04:36:45;10.00;;;8.97;;
25715;SDS011;13573;50.936;4.328;2023-06-10T04:39:12;9.43;;;8.70;;
25715;SDS011;13573;50.936;4.328;2023-06-10T04:41:39;8.07;;;7.57;;
25715;SDS011;13573;50.936;4.328;2023-06-10T04:44:06;8.97;;;8.33;;
25715;SDS011;13573;50.936;4.328;2023-06-10T04:46:32;6.80;;;6.50;;
25715;SDS011;13573;50.936;4.328;2023-06-10T04:48:59;7.60;;;7.13;;
25715;SDS011;13573;50.936;4.328;2023-06-10T04:51:26;8.23;;;7.63;;
25715;SDS011;13573;50.936;4.328;2023-06-10T04:53:52;6.50;;;6.20;;
25715;SDS011;13573;50.936;4.328;2023-06-10T04:56:19;8.60;;;8.10;;
25715;SDS011;13573;50.936;4.328;2023-06-10T04:58:45;9.20;;;8.47;;
25715;SDS011;13573;50.936;4.328;2023-06-10T05:01:12;10.83;;;9.73;;
25715;SDS011;13573;50.936;4.328;2023-06-10T05:03:39;8.53;;;8.03;;
25715;SDS011;13573;50.936;4.328;2023-06-10T05:06:05;8.77;;;8.27;;
25715;SDS011;13573;50.936;4.328;2023-06-10T05:08:32;7.40;;;7.00;;
25715;SDS011;13573;50.936;4.328;2023-06-10T05:10:59;7.77;;;7.37;;
25715;SDS011;13573;50.936;4.328;2023-06-10T05:13:26;10.43;;;9.53;;
25715;SDS011;13573;50.936;4.328;2023-06-10T05:15:53;9.63;;;8.93;;
25715;SDS011;13573;50.936;4.328;2023-06-10T05:18:19;8.17;;;7.73;;
25715;SDS011;13573;50.936;4.328;2023-06-10T05:20:46;9.07;;;8.57;;
25715;SDS011;13573;50.936;4.328;2023-06-10T05:23:13;10.97;;;9.97;;
25715;SDS011;13573;50.936;4.328;2023-06-10T05:25:40;7.70;;;7.27;;
25715;SDS011;13573;50.936;4.328;2023-06-10T05:28:08;8.63;;;8.00;;
25715;SDS011;13573;50.936;4.328;2023-06-10T05:30:37;8.37;;;7.67;;
25715;SDS011;13573;50.936;4.328;2023-06-10T05:33:04;13.07;;;8.50;;
25715;SDS011;13573;50.936;4.328;2023-06-10T05:35:31;10.73;;;9.93;;
25715;SDS011;13573;50.936;4.328;2023-06-10T05:37:57;10.30;;;9.53;;
25715;SDS011;13573;50.936;4.328;2023-06-10T05:40:24;11.87;;;10.80;;
25715;SDS011;13573;50.936;4.328;2023-06-10T05:42:51;10.77;;;9.80;;
25715;SDS011;13573;50.936;4.328;2023-06-10T05:45:17;8.23;;;7.83;;
25715;SDS011;13573;50.936;4.328;2023-06-10T05:47:44;11.17;;;10.17;;
25715;SDS011;13573;50.936;4.328;2023-06-10T05:50:10;8.67;;;8.17;;
25715;SDS011;13573;50.936;4.328;2023-06-10T05:52:37;11.03;;;10.17;;
25715;SDS011;13573;50.936;4.328;2023-06-10T05:55:06;13.27;;;11.90;;
25715;SDS011;13573;50.936;4.328;2023-06-10T05:57:33;10.57;;;9.73;;
25715;SDS011;13573;50.936;4.328;2023-06-10T06:00:00;10.53;;;9.80;;
25715;SDS011;13573;50.936;4.328;2023-06-10T06:02:27;11.30;;;10.30;;
25715;SDS011;13573;50.936;4.328;2023-06-10T06:04:53;9.60;;;9.00;;
25715;SDS011;13573;50.936;4.328;2023-06-10T06:07:20;12.90;;;11.47;;
25715;SDS011;13573;50.936;4.328;2023-06-10T06:09:47;12.30;;;11.10;;
25715;SDS011;13573;50.936;4.328;2023-06-10T06:12:13;10.60;;;9.80;;
25715;SDS011;13573;50.936;4.328;2023-06-10T06:14:40;10.20;;;9.40;;
25715;SDS011;13573;50.936;4.328;2023-06-10T06:17:07;47.27;;;13.07;;
25715;SDS011;13573;50.936;4.328;2023-06-10T06:19:34;13.43;;;12.20;;
25715;SDS011;13573;50.936;4.328;2023-06-10T06:22:00;10.73;;;9.90;;
25715;SDS011;13573;50.936;4.328;2023-06-10T06:24:28;13.40;;;12.17;;
25715;SDS011;13573;50.936;4.328;2023-06-10T06:26:54;10.63;;;9.97;;
25715;SDS011;13573;50.936;4.328;2023-06-10T06:29:21;8.87;;;8.43;;
25715;SDS011;13573;50.936;4.328;2023-06-10T06:31:48;8.87;;;8.27;;
25715;SDS011;13573;50.936;4.328;2023-06-10T06:34:14;9.47;;;8.87;;
25715;SDS011;13573;50.936;4.328;2023-06-10T06:36:41;12.70;;;11.17;;
25715;SDS011;13573;50.936;4.328;2023-06-10T06:39:08;9.63;;;9.00;;
25715;SDS011;13573;50.936;4.328;2023-06-10T06:41:34;14.23;;;13.03;;
25715;SDS011;13573;50.936;4.328;2023-06-10T06:44:01;13.53;;;12.13;;
25715;SDS011;13573;50.936;4.328;2023-06-10T06:46:28;13.90;;;12.60;;
25715;SDS011;13573;50.936;4.328;2023-06-10T06:48:55;13.27;;;12.17;;
25715;SDS011;13573;50.936;4.328;2023-06-10T06:51:21;12.40;;;11.27;;
25715;SDS011;13573;50.936;4.328;2023-06-10T06:53:48;14.00;;;12.60;;
25715;SDS011;13573;50.936;4.328;2023-06-10T06:56:16;12.73;;;11.70;;
25715;SDS011;13573;50.936;4.328;2023-06-10T06:58:43;14.00;;;12.70;;
25715;SDS011;13573;50.936;4.328;2023-06-10T07:01:09;11.90;;;11.10;;
25715;SDS011;13573;50.936;4.328;2023-06-10T07:03:36;11.53;;;10.93;;
25715;SDS011;13573;50.936;4.328;2023-06-10T07:06:03;14.27;;;13.07;;
25715;SDS011;13573;50.936;4.328;2023-06-10T07:08:29;14.03;;;13.13;;
25715;SDS011;13573;50.936;4.328;2023-06-10T07:10:56;12.10;;;11.45;;
25715;SDS011;13573;50.936;4.328;2023-06-10T07:13:23;5.12;;;2.77;;
25715;SDS011;13573;50.936;4.328;2023-06-10T07:15:49;3.10;;;2.25;;
25715;SDS011;13573;50.936;4.328;2023-06-10T07:18:16;6.55;;;3.40;;
25715;SDS011;13573;50.936;4.328;2023-06-10T07:20:44;2.00;;;1.20;;
25715;SDS011;13573;50.936;4.328;2023-06-10T07:23:11;7.97;;;3.10;;
25715;SDS011;13573;50.936;4.328;2023-06-10T07:25:37;4.17;;;2.52;;
25715;SDS011;13573;50.936;4.328;2023-06-10T07:28:04;11.88;;;11.18;;
25715;SDS011;13573;50.936;4.328;2023-06-10T07:30:31;11.15;;;10.40;;
25715;SDS011;13573;50.936;4.328;2023-06-10T07:32:57;14.65;;;13.43;;
25715;SDS011;13573;50.936;4.328;2023-06-10T07:35:24;3.55;;;2.02;;
25715;SDS011;13573;50.936;4.328;2023-06-10T07:37:51;4.30;;;2.52;;
25715;SDS011;13573;50.936;4.328;2023-06-10T07:40:17;1.85;;;1.55;;
25715;SDS011;13573;50.936;4.328;2023-06-10T07:42:44;3.72;;;1.15;;
25715;SDS011;13573;50.936;4.328;2023-06-10T07:45:11;4.87;;;2.75;;
25715;SDS011;13573;50.936;4.328;2023-06-10T07:47:38;3.40;;;2.30;;
25715;SDS011;13573;50.936;4.328;2023-06-10T07:50:05;5.15;;;3.55;;
25715;SDS011;13573;50.936;4.328;2023-06-10T07:52:31;4.25;;;1.85;;
25715;SDS011;13573;50.936;4.328;2023-06-10T07:54:58;5.05;;;2.27;;
25715;SDS011;13573;50.936;4.328;2023-06-10T07:57:25;2.75;;;1.87;;
25715;SDS011;13573;50.936;4.328;2023-06-10T07:59:52;4.17;;;2.37;;
25715;SDS011;13573;50.936;4.328;2023-06-10T08:02:20;3.47;;;1.30;;
25715;SDS011;13573;50.936;4.328;2023-06-10T08:04:47;3.25;;;1.50;;
25715;SDS011;13573;50.936;4.328;2023-06-10T08:07:13;3.72;;;1.37;;
25715;SDS011;13573;50.936;4.328;2023-06-10T08:09:40;0.40;;;0.40;;
25715;SDS011;13573;50.936;4.328;2023-06-10T08:12:07;12.00;;;11.20;;
25715;SDS011;13573;50.936;4.328;2023-06-10T08:14:33;3.22;;;2.90;;
25715;SDS011;13573;50.936;4.328;2023-06-10T08:17:00;13.65;;;12.70;;
25715;SDS011;13573;50.936;4.328;2023-06-10T08:19:27;12.68;;;11.65;;
25715;SDS011;13573;50.936;4.328;2023-06-10T08:21:53;2.92;;;1.82;;
25715;SDS011;13573;50.936;4.328;2023-06-10T08:24:20;12.07;;;11.38;;
25715;SDS011;13573;50.936;4.328;2023-06-10T08:26:46;13.72;;;12.98;;
25715;SDS011;13573;50.936;4.328;2023-06-10T08:29:13;19.25;;;17.85;;
25715;SDS011;13573;50.936;4.328;2023-06-10T08:31:41;17.20;;;16.10;;
25715;SDS011;13573;50.936;4.328;2023-06-10T08:34:08;18.65;;;16.70;;
25715;SDS011;13573;50.936;4.328;2023-06-10T08:36:36;16.23;;;15.43;;
25715;SDS011;13573;50.936;4.328;2023-06-10T08:39:02;16.12;;;15.28;;
25715;SDS011;13573;50.936;4.328;2023-06-10T08:41:30;17.50;;;16.48;;
25715;SDS011;13573;50.936;4.328;2023-06-10T08:44:03;16.87;;;15.95;;
25715;SDS011;13573;50.936;4.328;2023-06-10T08:46:31;19.73;;;18.42;;
25715;SDS011;13573;50.936;4.328;2023-06-10T08:49:00;16.73;;;15.72;;
25715;SDS011;13573;50.936;4.328;2023-06-10T08:51:29;19.05;;;17.98;;
25715;SDS011;13573;50.936;4.328;2023-06-10T08:54:01;19.90;;;18.50;;
25715;SDS011;13573;50.936;4.328;2023-06-10T08:56:30;5.05;;;1.95;;
25715;SDS011;13573;50.936;4.328;2023-06-10T08:59:01;3.42;;;2.42;;
25715;SDS011;13573;50.936;4.328;2023-06-10T09:01:28;2.62;;;1.52;;
25715;SDS011;13573;50.936;4.328;2023-06-10T09:03:55;2.55;;;1.77;;
25715;SDS011;13573;50.936;4.328;2023-06-10T09:06:25;4.53;;;2.65;;
25715;SDS011;13573;50.936;4.328;2023-06-10T09:08:52;0.60;;;0.60;;
25715;SDS011;13573;50.936;4.328;2023-06-10T09:11:19;1.50;;;1.37;;
25715;SDS011;13573;50.936;4.328;2023-06-10T09:13:45;1.87;;;1.60;;
25715;SDS011;13573;50.936;4.328;2023-06-10T09:16:12;1.07;;;0.82;;
25715;SDS011;13573;50.936;4.328;2023-06-10T09:18:39;1.57;;;1.05;;
25715;SDS011;13573;50.936;4.328;2023-06-10T09:21:06;1.65;;;0.62;;
25715;SDS011;13573;50.936;4.328;2023-06-10T09:23:32;4.03;;;2.33;;
25715;SDS011;13573;50.936;4.328;2023-06-10T09:26:00;0.37;;;0.33;;
25715;SDS011;13573;50.936;4.328;2023-06-10T09:28:29;16.02;;;15.08;;
25715;SDS011;13573;50.936;4.328;2023-06-10T09:33:31;21.42;;;20.30;;
25715;SDS011;13573;50.936;4.328;2023-06-10T09:35:57;22.77;;;21.48;;
25715;SDS011;13573;50.936;4.328;2023-06-10T09:38:29;20.60;;;19.50;;
25715;SDS011;13573;50.936;4.328;2023-06-10T09:40:57;24.07;;;22.65;;
25715;SDS011;13573;50.936;4.328;2023-06-10T09:43:38;21.73;;;20.52;;
25715;SDS011;13573;50.936;4.328;2023-06-10T09:45:55;21.87;;;20.65;;
25715;SDS011;13573;50.936;4.328;2023-06-10T09:48:22;21.00;;;19.87;;
25715;SDS011;13573;50.936;4.328;2023-06-10T09:50:49;23.55;;;22.10;;
25715;SDS011;13573;50.936;4.328;2023-06-10T09:53:16;17.55;;;16.55;;
25715;SDS011;13573;50.936;4.328;2023-06-10T09:55:44;19.55;;;18.45;;
25715;SDS011;13573;50.936;4.328;2023-06-10T09:58:10;18.80;;;17.80;;
25715;SDS011;13573;50.936;4.328;2023-06-10T10:00:37;18.55;;;17.55;;
25715;SDS011;13573;50.936;4.328;2023-06-10T10:03:04;17.65;;;16.65;;
25715;SDS011;13573;50.936;4.328;2023-06-10T10:05:32;21.30;;;19.82;;
25715;SDS011;13573;50.936;4.328;2023-06-10T10:07:59;19.00;;;17.90;;
25715;SDS011;13573;50.936;4.328;2023-06-10T10:10:25;19.67;;;18.42;;
25715;SDS011;13573;50.936;4.328;2023-06-10T10:12:53;19.92;;;18.73;;
25715;SDS011;13573;50.936;4.328;2023-06-10T10:15:21;20.68;;;19.37;;
25715;SDS011;13573;50.936;4.328;2023-06-10T10:17:55;19.95;;;18.85;;
25715;SDS011;13573;50.936;4.328;2023-06-10T10:20:26;18.73;;;17.73;;
25715;SDS011;13573;50.936;4.328;2023-06-10T10:22:56;21.60;;;20.25;;
25715;SDS011;13573;50.936;4.328;2023-06-10T10:25:28;21.65;;;20.05;;
25715;SDS011;13573;50.936;4.328;2023-06-10T10:27:57;21.85;;;20.68;;
25715;SDS011;13573;50.936;4.328;2023-06-10T10:30:28;20.40;;;18.92;;
25715;SDS011;13573;50.936;4.328;2023-06-10T10:32:57;20.40;;;19.23;;
25715;SDS011;13573;50.936;4.328;2023-06-10T10:35:29;23.10;;;21.07;;
25715;SDS011;13573;50.936;4.328;2023-06-10T10:37:59;20.72;;;19.32;;
25715;SDS011;13573;50.936;4.328;2023-06-10T10:40:26;19.90;;;18.65;;
25715;SDS011;13573;50.936;4.328;2023-06-10T10:42:55;21.07;;;19.67;;
25715;SDS011;13573;50.936;4.328;2023-06-10T10:45:23;21.87;;;20.57;;
25715;SDS011;13573;50.936;4.328;2023-06-10T10:47:52;20.08;;;18.77;;
25715;SDS011;13573;50.936;4.328;2023-06-10T10:50:21;19.32;;;18.12;;
25715;SDS011;13573;50.936;4.328;2023-06-10T10:52:52;19.70;;;18.50;;
25715;SDS011;13573;50.936;4.328;2023-06-10T10:55:22;19.48;;;18.37;;
25715;SDS011;13573;50.936;4.328;2023-06-10T10:57:55;19.40;;;18.30;;
25715;SDS011;13573;50.936;4.328;2023-06-10T11:00:27;19.12;;;18.12;;
25715;SDS011;13573;50.936;4.328;2023-06-10T11:02:58;19.87;;;18.52;;
25715;SDS011;13573;50.936;4.328;2023-06-10T11:05:40;17.05;;;16.05;;
25715;SDS011;13573;50.936;4.328;2023-06-10T11:08:10;20.82;;;19.42;;
25715;SDS011;13573;50.936;4.328;2023-06-10T11:10:39;19.45;;;17.85;;
25715;SDS011;13573;50.936;4.328;2023-06-10T11:13:09;18.48;;;17.45;;
25715;SDS011;13573;50.936;4.328;2023-06-10T11:15:43;19.10;;;17.90;;
25715;SDS011;13573;50.936;4.328;2023-06-10T11:18:13;17.40;;;16.40;;
25715;SDS011;13573;50.936;4.328;2023-06-10T11:21:04;18.75;;;17.37;;
25715;SDS011;13573;50.936;4.328;2023-06-10T11:23:33;18.85;;;17.57;;
25715;SDS011;13573;50.936;4.328;2023-06-10T11:28:41;19.10;;;17.95;;
25715;SDS011;13573;50.936;4.328;2023-06-10T11:31:31;19.95;;;18.65;;
25715;SDS011;13573;50.936;4.328;2023-06-10T11:34:00;19.77;;;18.48;;
25715;SDS011;13573;50.936;4.328;2023-06-10T11:36:30;20.68;;;19.37;;
25715;SDS011;13573;50.936;4.328;2023-06-10T11:39:00;19.82;;;18.52;;
25715;SDS011;13573;50.936;4.328;2023-06-10T11:41:28;17.60;;;16.48;;
25715;SDS011;13573;50.936;4.328;2023-06-10T11:43:56;19.15;;;17.90;;
25715;SDS011;13573;50.936;4.328;2023-06-10T11:46:25;19.35;;;18.05;;
25715;SDS011;13573;50.936;4.328;2023-06-10T11:48:54;16.70;;;15.60;;
25715;SDS011;13573;50.936;4.328;2023-06-10T11:51:25;16.15;;;15.05;;
25715;SDS011;13573;50.936;4.328;2023-06-10T11:53:53;17.05;;;15.85;;
25715;SDS011;13573;50.936;4.328;2023-06-10T11:56:22;15.72;;;14.83;;
25715;SDS011;13573;50.936;4.328;2023-06-10T11:58:52;16.37;;;15.40;;
25715;SDS011;13573;50.936;4.328;2023-06-10T12:01:20;17.80;;;16.80;;
25715;SDS011;13573;50.936;4.328;2023-06-10T12:03:56;19.30;;;17.80;;
25715;SDS011;13573;50.936;4.328;2023-06-10T12:06:22;3.85;;;2.27;;
25715;SDS011;13573;50.936;4.328;2023-06-10T12:08:49;2.87;;;2.25;;
25715;SDS011;13573;50.936;4.328;2023-06-10T12:11:16;2.55;;;1.27;;
25715;SDS011;13573;50.936;4.328;2023-06-10T12:13:46;2.67;;;2.08;;
25715;SDS011;13573;50.936;4.328;2023-06-10T12:16:15;5.65;;;3.20;;
25715;SDS011;13573;50.936;4.328;2023-06-10T12:18:43;2.33;;;1.47;;
25715;SDS011;13573;50.936;4.328;2023-06-10T12:21:16;6.67;;;3.67;;
25715;SDS011;13573;50.936;4.328;2023-06-10T12:26:33;4.72;;;2.47;;
25715;SDS011;13573;50.936;4.328;2023-06-10T12:28:52;3.00;;;1.87;;
25715;SDS011;13573;50.936;4.328;2023-06-10T12:31:19;1.17;;;1.00;;
25715;SDS011;13573;50.936;4.328;2023-06-10T12:33:46;1.90;;;0.55;;
25715;SDS011;13573;50.936;4.328;2023-06-10T12:36:16;2.10;;;1.40;;
25715;SDS011;13573;50.936;4.328;2023-06-10T12:38:43;2.35;;;1.42;;
25715;SDS011;13573;50.936;4.328;2023-06-10T12:41:10;2.17;;;1.47;;
25715;SDS011;13573;50.936;4.328;2023-06-10T12:43:38;16.95;;;16.00;;
25715;SDS011;13573;50.936;4.328;2023-06-10T12:46:08;28.70;;;20.40;;
25715;SDS011;13573;50.936;4.328;2023-06-10T12:48:37;18.70;;;17.50;;
25715;SDS011;13573;50.936;4.328;2023-06-10T12:51:08;16.82;;;15.83;;
25715;SDS011;13573;50.936;4.328;2023-06-10T12:53:34;19.15;;;17.95;;
25715;SDS011;13573;50.936;4.328;2023-06-10T12:56:01;19.23;;;18.05;;
25715;SDS011;13573;50.936;4.328;2023-06-10T12:58:28;1.67;;;1.37;;
25715;SDS011;13573;50.936;4.328;2023-06-10T13:00:55;5.35;;;3.52;;
25715;SDS011;13573;50.936;4.328;2023-06-10T13:03:22;3.10;;;2.08;;
25715;SDS011;13573;50.936;4.328;2023-06-10T13:05:48;2.27;;;1.37;;
25715;SDS011;13573;50.936;4.328;2023-06-10T13:08:15;2.50;;;1.27;;
25715;SDS011;13573;50.936;4.328;2023-06-10T13:10:42;4.53;;;2.25;;
25715;SDS011;13573;50.936;4.328;2023-06-10T13:13:08;3.72;;;2.70;;
25715;SDS011;13573;50.936;4.328;2023-06-10T13:15:35;23.55;;;2.60;;
25715;SDS011;13573;50.936;4.328;2023-06-10T13:18:02;3.67;;;2.02;;
25715;SDS011;13573;50.936;4.328;2023-06-10T13:20:30;3.42;;;2.60;;
25715;SDS011;13573;50.936;4.328;2023-06-10T13:22:57;2.65;;;1.50;;
25715;SDS011;13573;50.936;4.328;2023-06-10T13:25:24;8.25;;;2.45;;
25715;SDS011;13573;50.936;4.328;2023-06-10T13:27:50;2.50;;;1.52;;
25715;SDS011;13573;50.936;4.328;2023-06-10T13:30:17;0.62;;;0.60;;
25715;SDS011;13573;50.936;4.328;2023-06-10T13:32:44;5.40;;;4.55;;
25715;SDS011;13573;50.936;4.328;2023-06-10T13:35:10;10.30;;;9.60;;
25715;SDS011;13573;50.936;4.328;2023-06-10T13:37:37;10.68;;;9.70;;
25715;SDS011;13573;50.936;4.328;2023-06-10T13:40:04;2.50;;;2.27;;
25715;SDS011;13573;50.936;4.328;2023-06-10T13:42:31;3.70;;;2.37;;
25715;SDS011;13573;50.936;4.328;2023-06-10T13:44:58;19.07;;;14.25;;
25715;SDS011;13573;50.936;4.328;2023-06-10T13:47:25;2.77;;;2.58;;
25715;SDS011;13573;50.936;4.328;2023-06-10T13:49:52;3.75;;;2.58;;
25715;SDS011;13573;50.936;4.328;2023-06-10T13:52:18;11.55;;;10.50;;
25715;SDS011;13573;50.936;4.328;2023-06-10T13:54:45;5.03;;;2.52;;
25715;SDS011;13573;50.936;4.328;2023-06-10T13:57:12;0.37;;;0.37;;
25715;SDS011;13573;50.936;4.328;2023-06-10T13:59:38;13.48;;;3.75;;
25715;SDS011;13573;50.936;4.328;2023-06-10T14:02:05;1.17;;;0.95;;
25715;SDS011;13573;50.936;4.328;2023-06-10T14:04:32;19.80;;;18.50;;
25715;SDS011;13573;50.936;4.328;2023-06-10T14:06:59;16.12;;;15.23;;
25715;SDS011;13573;50.936;4.328;2023-06-10T14:09:26;17.45;;;16.30;;
25715;SDS011;13573;50.936;4.328;2023-06-10T14:11:53;1.07;;;0.68;;
25715;SDS011;13573;50.936;4.328;2023-06-10T14:14:20;2.05;;;1.85;;
25715;SDS011;13573;50.936;4.328;2023-06-10T14:16:47;3.45;;;1.70;;
25715;SDS011;13573;50.936;4.328;2023-06-10T14:19:14;1.05;;;0.98;;
25715;SDS011;13573;50.936;4.328;2023-06-10T14:21:41;4.40;;;1.57;;
25715;SDS011;13573;50.936;4.328;2023-06-10T14:24:07;4.67;;;3.02;;
25715;SDS011;13573;50.936;4.328;2023-06-10T14:26:34;3.37;;;1.92;;
25715;SDS011;13573;50.936;4.328;2023-06-10T14:29:01;3.70;;;1.77;;
25715;SDS011;13573;50.936;4.328;2023-06-10T14:31:28;4.03;;;2.58;;
25715;SDS011;13573;50.936;4.328;2023-06-10T14:33:54;2.90;;;2.05;;
25715;SDS011;13573;50.936;4.328;2023-06-10T14:36:21;2.12;;;1.40;;
25715;SDS011;13573;50.936;4.328;2023-06-10T14:38:48;1.90;;;1.55;;
25715;SDS011;13573;50.936;4.328;2023-06-10T14:41:15;5.08;;;2.90;;
25715;SDS011;13573;50.936;4.328;2023-06-10T14:43:42;6.60;;;2.98;;
25715;SDS011;13573;50.936;4.328;2023-06-10T14:46:08;2.05;;;1.57;;
25715;SDS011;13573;50.936;4.328;2023-06-10T14:48:35;4.80;;;1.35;;
25715;SDS011;13573;50.936;4.328;2023-06-10T14:51:01;2.02;;;1.80;;
25715;SDS011;13573;50.936;4.328;2023-06-10T14:53:29;4.08;;;2.62;;